CMA CGM La Boussole — A8FZ6 — position and weather

sailwx.info

Track history (hours):
 
Tides and Currents Weather Stations Pressure Air Temp Water Temp Dewpoint Dewpoint Depression Visibility Wind Speed Wind Dir Waves Ship Positions

CMA CGM La Boussole

Last reported at 2014-Dec-22 00:00 UTC. Time now 2014-Dec-22 02:44 UTC.
Position N 23°24' W 048°06'.

Length 210.1 m; beam 30.2 m; draft 11.5 m.

Type: Ship (hazmat cat D). MMSI: 636090821.

Wind from 070 at 7 knots

Waves 2.0 meters (7 feet), 9 second period

Barometer 1020.0 mb
Air temperature 23.0 ° C
Visibility: greater than 5.4 NM
Dewpoint 17.4 ° C
Water temperature 24.0 ° C

Date/timePositionNaut miles runAvg speedWind from/ knotsBaromVisibWave heightAir tempDewpointWater temp
2014-Dec-22 00:00N 23°24' W 048°06'10517.5 070 / 71020.0 5.4 2.023.017.424.0
2014-Dec-21 18:00N 24°12' W 046°24'9215.3 080 / 51018.0 5.4 25.018.8
2014-Dec-21 12:00N 24°54' W 044°54'10417.3 240 / 101018.010.8 2.024.017.625.0
2014-Dec-21 06:00N 25°42' W 043°12'9115.2 170 / 101018.0 5.4 0.523.021.522.0
2014-Dec-21 00:00N 26°24' W 041°42'   180 / 161019.0 5.4 2.024.021.023.0
2014-Dec-16 03:22N 35°57' W 005°33'5 0.3
2014-Dec-15 10:33N 35°59' W 005°27'9 8.6
2014-Dec-15 09:33N 36°03' W 005°18'4 4.4
2014-Dec-15 08:33N 36°04' W 005°12'21011.6
2014-Dec-14 14:32N 37°12' W 001°06'1616.8
2014-Dec-14 13:33N 37°23' W 000°50'1615.7
2014-Dec-14 12:33N 37°33' W 000°35'1616.1
2014-Dec-14 11:34N 37°47' W 000°24'9713.9
2014-Dec-14 04:34N 39°23' W 000°14'5 5.2
2014-Dec-14 03:33N 39°27' W 000°19'0 0.0
2014-Dec-14 02:31N 39°27' W 000°19'0 0.0
2014-Dec-14 01:31N 39°27' W 000°19'0 0.0
2014-Dec-14 00:33N 39°27' W 000°19'0 0.0
2014-Dec-13 23:33N 39°27' W 000°19'0 0.0
2014-Dec-13 22:32N 39°27' W 000°19'0 0.0
2014-Dec-13 21:32N 39°27' W 000°19'0 0.0
2014-Dec-13 20:31N 39°27' W 000°19'0 0.0
2014-Dec-13 19:31N 39°27' W 000°19'0 0.0
2014-Dec-13 18:34N 39°27' W 000°19'0 0.0
2014-Dec-13 17:33N 39°27' W 000°19'0 0.0
2014-Dec-13 16:30N 39°27' W 000°19'0 0.0
2014-Dec-13 15:32N 39°27' W 000°19'0 0.0
2014-Dec-13 14:32N 39°27' W 000°19'0 0.0
2014-Dec-13 13:31N 39°27' W 000°19'0 0.0
2014-Dec-13 12:31N 39°27' W 000°19'0 0.0
2014-Dec-13 11:33N 39°27' W 000°19'0 0.0
2014-Dec-13 10:33N 39°27' W 000°19'0 0.0
2014-Dec-13 09:33N 39°27' W 000°19'0 0.0
2014-Dec-13 08:32N 39°27' W 000°19'0 0.0
2014-Dec-13 07:32N 39°27' W 000°19'0 0.0
2014-Dec-13 06:32N 39°27' W 000°19'0 0.0
2014-Dec-13 05:33N 39°27' W 000°19'5 5.4
2014-Dec-13 04:33N 39°26' W 000°12'1313.0
2014-Dec-13 03:32N 39°31' E 000°04'3712.3
2014-Dec-13 00:31N 39°45' E 000°48'1412.8
2014-Dec-12 23:27N 39°56' E 000°60'1513.0
2014-Dec-12 22:18N 40°08' E 001°10'1012.9
2014-Dec-12 21:33N 40°16' E 001°17'1312.7
2014-Dec-12 20:33N 40°27' E 001°27'1312.5
2014-Dec-12 19:33N 40°37' E 001°36'1312.9
2014-Dec-12 18:33N 40°48' E 001°46'1312.8
2014-Dec-12 17:32N 40°59' E 001°55'1312.9
2014-Dec-12 16:30N 41°10' E 002°05'9 0.8
2014-Dec-12 05:04N 41°18' E 002°11'  
Track history (hours):
 
Tides and Currents Weather Stations Pressure Air Temp Water Temp Dewpoint Dewpoint Depression Visibility Wind Speed Wind Dir Waves Ship Positions

CMA CGM La Boussole

Last reported at 2014-Dec-22 00:00 UTC. Time now 2014-Dec-22 02:44 UTC.
Position N 23°24' W 048°06'.

Length 210.1 m; beam 30.2 m; draft 11.5 m.

Type: Ship (hazmat cat D). MMSI: 636090821.

Wind from 070 at 7 knots

Waves 2.0 meters (7 feet), 9 second period

Barometer 1020.0 mb
Air temperature 23.0 ° C
Visibility: greater than 5.4 NM
Dewpoint 17.4 ° C
Water temperature 24.0 ° C

Date/timePositionNaut miles runAvg speedWind from/ knotsBaromVisibWave heightAir tempDewpointWater temp
2014-Dec-22 00:00N 23°24' W 048°06'10517.5 070 / 71020.0 5.4 2.023.017.424.0
2014-Dec-21 18:00N 24°12' W 046°24'9215.3 080 / 51018.0 5.4 25.018.8
2014-Dec-21 12:00N 24°54' W 044°54'10417.3 240 / 101018.010.8 2.024.017.625.0
2014-Dec-21 06:00N 25°42' W 043°12'9115.2 170 / 101018.0 5.4 0.523.021.522.0
2014-Dec-21 00:00N 26°24' W 041°42'   180 / 161019.0 5.4 2.024.021.023.0
2014-Dec-16 03:22N 35°57' W 005°33'5 0.3
2014-Dec-15 10:33N 35°59' W 005°27'9 8.6
2014-Dec-15 09:33N 36°03' W 005°18'4 4.4
2014-Dec-15 08:33N 36°04' W 005°12'21011.6
2014-Dec-14 14:32N 37°12' W 001°06'1616.8
2014-Dec-14 13:33N 37°23' W 000°50'1615.7
2014-Dec-14 12:33N 37°33' W 000°35'1616.1
2014-Dec-14 11:34N 37°47' W 000°24'9713.9
2014-Dec-14 04:34N 39°23' W 000°14'5 5.2
2014-Dec-14 03:33N 39°27' W 000°19'0 0.0
2014-Dec-14 02:31N 39°27' W 000°19'0 0.0
2014-Dec-14 01:31N 39°27' W 000°19'0 0.0
2014-Dec-14 00:33N 39°27' W 000°19'0 0.0
2014-Dec-13 23:33N 39°27' W 000°19'0 0.0
2014-Dec-13 22:32N 39°27' W 000°19'0 0.0
2014-Dec-13 21:32N 39°27' W 000°19'0 0.0
2014-Dec-13 20:31N 39°27' W 000°19'0 0.0
2014-Dec-13 19:31N 39°27' W 000°19'0 0.0
2014-Dec-13 18:34N 39°27' W 000°19'0 0.0
2014-Dec-13 17:33N 39°27' W 000°19'0 0.0
2014-Dec-13 16:30N 39°27' W 000°19'0 0.0
2014-Dec-13 15:32N 39°27' W 000°19'0 0.0
2014-Dec-13 14:32N 39°27' W 000°19'0 0.0
2014-Dec-13 13:31N 39°27' W 000°19'0 0.0
2014-Dec-13 12:31N 39°27' W 000°19'0 0.0
2014-Dec-13 11:33N 39°27' W 000°19'0 0.0
2014-Dec-13 10:33N 39°27' W 000°19'0 0.0
2014-Dec-13 09:33N 39°27' W 000°19'0 0.0
2014-Dec-13 08:32N 39°27' W 000°19'0 0.0
2014-Dec-13 07:32N 39°27' W 000°19'0 0.0
2014-Dec-13 06:32N 39°27' W 000°19'0 0.0
2014-Dec-13 05:33N 39°27' W 000°19'5 5.4
2014-Dec-13 04:33N 39°26' W 000°12'1313.0
2014-Dec-13 03:32N 39°31' E 000°04'3712.3
2014-Dec-13 00:31N 39°45' E 000°48'1412.8
2014-Dec-12 23:27N 39°56' E 000°60'1513.0
2014-Dec-12 22:18N 40°08' E 001°10'1012.9
2014-Dec-12 21:33N 40°16' E 001°17'1312.7
2014-Dec-12 20:33N 40°27' E 001°27'1312.5
2014-Dec-12 19:33N 40°37' E 001°36'1312.9
2014-Dec-12 18:33N 40°48' E 001°46'1312.8
2014-Dec-12 17:32N 40°59' E 001°55'1312.9
2014-Dec-12 16:30N 41°10' E 002°05'9 0.8
2014-Dec-12 05:04N 41°18' E 002°11'  

Dump ship's entire track history